Terminal Aerodrome Forecast
Issued by NWS State College, PA

Home | Current Version | Previous Version | Text Only | Print | Product List | Glossary On
Versions: 1 2 3 4 5 6 7 8 9 10 11 12 13 14 15 16 17 18 19 20 21 22 23 24 25 26 27 28 29 30
000
FTUS41 KCTP 180202 AAA
TAFMDT
TAF AMD
KMDT 180202Z 1802/1824 12004KT 2SM -SHRA BR OVC004
     FM180400 00000KT 1/2SM FG OVC003
     FM180600 29003KT 1/4SM FG OVC001
     FM181300 30006KT 2SM BR OVC015
     FM181800 32010KT P6SM OVC025=

USA.gov is the U.S. government's official web portal to all federal, state and local government web resources and services.